Time;durP1;ratioP1;P1;durP2;ratioP2;P2;SDS_P1;SDS_P2;PMS_P1;PMS_P2;Temp;Humidity;BMP_temperature;BMP_pressure;BME280_temperature;BME280_humidity;BME280_pressure;Samples;Min_cycle;Max_cycle;Signal;HPM_P1;HPM_P2
2021/07/28 00:00:09;;;;;;;12.17;11.07;;;18.60;99.90;;;;;;5026571;28;21399;-88
2021/07/28 00:02:36;;;;;;;12.27;11.20;;;18.50;99.90;;;;;;5027165;28;21153;-89
2021/07/28 00:05:02;;;;;;;13.53;12.27;;;18.60;99.90;;;;;;5000589;28;20734;-89
2021/07/28 00:07:29;;;;;;;14.97;13.57;;;18.60;99.90;;;;;;5009308;28;20971;-89
2021/07/28 00:09:57;;;;;;;15.20;13.90;;;18.60;99.90;;;;;;5019373;28;20659;-89
2021/07/28 00:12:24;;;;;;;15.70;14.30;;;18.60;99.90;;;;;;5018398;28;20616;-89
2021/07/28 00:14:51;;;;;;;14.80;13.50;;;18.60;99.90;;;;;;5017426;28;20638;-89
2021/07/28 00:17:18;;;;;;;14.97;13.77;;;18.60;99.90;;;;;;5017625;28;20631;-90
2021/07/28 00:19:56;;;;;;;17.90;16.30;;;18.60;99.90;;;;;;5017339;28;20778;-90
2021/07/28 00:25:11;;;;;;;14.83;13.53;;;18.50;99.90;;;;;;5016790;28;20626;-90
2021/07/28 00:27:38;;;;;;;16.53;15.10;;;18.50;99.90;;;;;;5018485;28;20976;-91
2021/07/28 00:30:08;;;;;;;16.23;14.97;;;18.60;99.90;;;;;;5016943;28;20659;-89
2021/07/28 00:32:35;;;;;;;13.90;12.73;;;18.50;99.90;;;;;;5013517;28;20697;-90
2021/07/28 00:35:02;;;;;;;15.50;14.10;;;18.50;99.90;;;;;;5013652;28;20635;-90
2021/07/28 00:37:29;;;;;;;12.30;11.30;;;18.50;99.90;;;;;;5012097;28;21173;-90
2021/07/28 00:39:56;;;;;;;14.30;13.10;;;18.60;99.90;;;;;;5017360;28;20676;-90
2021/07/28 00:42:25;;;;;;;12.27;11.23;;;18.50;99.90;;;;;;5018449;28;21026;-90
2021/07/28 00:44:51;;;;;;;12.93;11.63;;;18.50;99.90;;;;;;5021291;28;21007;-90
2021/07/28 00:47:18;;;;;;;13.03;11.83;;;18.60;99.90;;;;;;5019804;28;20676;-90
2021/07/28 00:49:46;;;;;;;13.47;12.40;;;18.50;99.90;;;;;;5022270;28;20682;-90
2021/07/28 00:52:13;;;;;;;12.37;11.30;;;18.40;99.90;;;;;;5026373;28;20615;-91
2021/07/28 00:54:40;;;;;;;12.37;10.93;;;18.50;99.90;;;;;;5025785;28;20627;-89
2021/07/28 00:57:08;;;;;;;13.37;12.37;;;18.50;99.90;;;;;;5024014;28;21205;-90
2021/07/28 00:59:36;;;;;;;13.70;12.47;;;18.50;99.90;;;;;;5018672;28;20759;-89
2021/07/28 01:02:03;;;;;;;12.17;11.17;;;18.60;99.90;;;;;;5021057;28;20699;-90
2021/07/28 01:04:30;;;;;;;13.30;12.20;;;18.60;99.90;;;;;;5023468;28;20644;-90
2021/07/28 01:06:59;;;;;;;12.37;11.23;;;18.50;99.90;;;;;;5024739;28;20622;-89
2021/07/28 01:09:28;;;;;;;13.70;12.50;;;18.50;99.90;;;;;;5019066;28;20709;-89
2021/07/28 01:11:57;;;;;;;14.47;13.03;;;18.40;99.90;;;;;;5017978;28;20628;-90
2021/07/28 01:14:24;;;;;;;14.60;13.30;;;18.50;99.90;;;;;;5020070;28;20638;-91
2021/07/28 01:16:54;;;;;;;12.97;11.93;;;18.50;99.90;;;;;;5018224;28;20685;-89
2021/07/28 01:19:25;;;;;;;13.63;11.50;;;18.50;99.90;;;;;;5016097;28;20662;-90
2021/07/28 01:21:53;;;;;;;12.67;11.53;;;18.60;99.90;;;;;;5014415;28;21012;-91
2021/07/28 01:24:21;;;;;;;13.87;12.67;;;18.50;99.90;;;;;;5020318;28;21029;-89
2021/07/28 01:26:49;;;;;;;10.30;9.40;;;18.60;99.90;;;;;;5017580;28;20618;-89
2021/07/28 01:29:16;;;;;;;10.20;9.27;;;18.50;99.90;;;;;;5018349;28;20669;-90
2021/07/28 01:31:44;;;;;;;12.43;11.30;;;18.50;99.90;;;;;;5018952;28;20632;-91
2021/07/28 01:34:12;;;;;;;12.37;11.40;;;18.50;99.90;;;;;;5024415;28;20623;-89
2021/07/28 01:36:41;;;;;;;11.80;10.90;;;18.50;99.90;;;;;;5019375;28;20634;-90
2021/07/28 01:39:08;;;;;;;10.83;9.93;;;18.60;99.90;;;;;;5020857;28;21193;-90
2021/07/28 01:41:36;;;;;;;11.23;10.33;;;18.60;99.90;;;;;;5025188;28;20648;-89
2021/07/28 01:44:03;;;;;;;12.20;11.20;;;18.60;99.90;;;;;;5025671;28;20631;-90
2021/07/28 01:46:30;;;;;;;12.70;11.70;;;18.50;99.90;;;;;;5018083;28;20667;-90
2021/07/28 01:48:57;;;;;;;12.27;11.30;;;18.50;99.90;;;;;;5016277;28;20624;-89
2021/07/28 01:51:24;;;;;;;12.00;11.00;;;18.50;99.90;;;;;;5014996;28;20646;-91
2021/07/28 01:53:50;;;;;;;11.20;10.10;;;18.50;99.90;;;;;;5019630;28;21217;-90
2021/07/28 01:56:18;;;;;;;10.87;9.87;;;18.50;99.90;;;;;;5021568;28;20638;-90
2021/07/28 01:58:54;;;;;;;10.63;9.63;;;18.40;99.90;;;;;;5020243;28;20702;-91
2021/07/28 02:01:21;;;;;;;10.23;9.23;;;18.50;99.90;;;;;;5022757;28;20670;-91
2021/07/28 02:03:48;;;;;;;10.07;9.07;;;18.40;99.90;;;;;;5002945;28;21193;-90
2021/07/28 02:06:15;;;;;;;10.30;9.33;;;18.40;99.90;;;;;;5026116;28;21147;-91
2021/07/28 02:08:44;;;;;;;9.80;8.80;;;18.30;99.90;;;;;;5015021;28;20994;-91
2021/07/28 02:11:11;;;;;;;10.10;9.07;;;18.30;99.90;;;;;;5013387;28;20674;-91
2021/07/28 02:13:37;;;;;;;10.60;9.80;;;18.30;99.90;;;;;;5017726;28;20615;-91
2021/07/28 02:16:06;;;;;;;10.83;9.93;;;18.30;99.90;;;;;;5019982;28;20639;-91
2021/07/28 02:18:33;;;;;;;10.10;9.20;;;18.30;99.90;;;;;;5012541;28;20636;-90
2021/07/28 02:21:01;;;;;;;12.17;11.07;;;18.30;99.90;;;;;;5020415;28;20737;-91
2021/07/28 02:23:28;;;;;;;9.93;9.13;;;18.30;99.90;;;;;;5024979;28;21217;-91
2021/07/28 02:25:55;;;;;;;9.47;8.67;;;18.40;99.90;;;;;;5002163;28;21047;-90
2021/07/28 02:28:22;;;;;;;7.97;7.27;;;18.30;99.90;;;;;;5017737;28;20632;-90
2021/07/28 02:30:49;;;;;;;8.70;7.90;;;18.30;99.90;;;;;;5018427;28;20647;-90
2021/07/28 02:33:17;;;;;;;8.53;7.83;;;18.30;99.90;;;;;;5023157;28;20627;-90
2021/07/28 02:35:44;;;;;;;9.17;7.47;;;18.30;99.90;;;;;;5018130;28;20645;-89
2021/07/28 02:38:11;;;;;;;8.77;7.50;;;18.30;99.90;;;;;;5011043;28;21003;-90
2021/07/28 02:40:37;;;;;;;10.77;9.80;;;18.30;99.90;;;;;;5018992;28;20686;-90
2021/07/28 02:43:04;;;;;;;10.63;9.80;;;18.20;99.90;;;;;;5019851;28;20647;-91
2021/07/28 02:45:33;;;;;;;9.60;8.80;;;18.20;99.90;;;;;;5014466;28;20628;-90
2021/07/28 02:48:04;;;;;;;8.80;8.10;;;18.20;99.90;;;;;;5016900;28;21022;-90
2021/07/28 02:50:32;;;;;;;8.90;8.10;;;18.20;99.90;;;;;;5020049;28;20658;-90
2021/07/28 02:53:00;;;;;;;8.30;7.50;;;18.20;99.90;;;;;;5021129;28;20631;-90
2021/07/28 02:55:27;;;;;;;9.50;8.70;;;18.20;99.90;;;;;;5021496;28;20623;-89
2021/07/28 02:57:53;;;;;;;7.60;7.00;;;18.20;99.90;;;;;;5015933;28;20636;-90
2021/07/28 03:00:20;;;;;;;8.20;6.90;;;18.10;99.90;;;;;;5009451;28;20675;-90
2021/07/28 03:02:48;;;;;;;7.00;6.40;;;18.10;99.90;;;;;;5019170;28;21193;-90
2021/07/28 03:05:15;;;;;;;7.77;7.17;;;18.00;99.90;;;;;;5022653;28;20742;-90
2021/07/28 03:07:43;;;;;;;8.77;7.33;;;18.00;99.90;;;;;;5022671;28;20649;-89
2021/07/28 03:10:11;;;;;;;7.23;6.63;;;17.90;99.90;;;;;;5019548;28;20992;-90
2021/07/28 03:12:38;;;;;;;8.33;6.53;;;17.90;99.90;;;;;;5018857;28;20637;-89
2021/07/28 03:15:06;;;;;;;9.17;7.40;;;17.90;99.90;;;;;;5023042;28;20638;-90
2021/07/28 03:17:32;;;;;;;8.60;7.90;;;17.90;99.90;;;;;;5021728;28;20631;-90
2021/07/28 03:19:59;;;;;;;7.30;6.70;;;17.80;99.90;;;;;;5019484;28;20774;-90
2021/07/28 03:22:26;;;;;;;7.50;6.90;;;17.80;99.90;;;;;;5023553;28;21002;-90
2021/07/28 03:24:55;;;;;;;7.57;6.90;;;17.80;99.90;;;;;;5022943;28;20634;-91
2021/07/28 03:27:21;;;;;;;7.37;6.87;;;17.90;99.90;;;;;;5019873;28;20630;-89
2021/07/28 03:29:48;;;;;;;9.07;8.27;;;17.90;99.90;;;;;;5020543;28;20658;-90
2021/07/28 03:32:15;;;;;;;7.73;7.13;;;17.90;99.90;;;;;;5015109;28;20634;-90
2021/07/28 03:34:42;;;;;;;9.20;8.37;;;18.00;99.90;;;;;;5020855;28;20630;-91
2021/07/28 03:37:09;;;;;;;10.50;9.60;;;18.00;99.90;;;;;;5023229;28;20971;-90
2021/07/28 03:39:35;;;;;;;10.67;9.87;;;18.10;99.90;;;;;;5009300;28;20655;-90
2021/07/28 03:42:04;;;;;;;11.70;10.70;;;18.10;99.90;;;;;;5020812;28;20635;-90
2021/07/28 03:44:31;;;;;;;11.40;10.40;;;18.10;99.90;;;;;;5014651;28;20628;-90
2021/07/28 03:46:57;;;;;;;12.00;11.10;;;18.10;99.90;;;;;;5016173;28;20638;-90
2021/07/28 03:49:24;;;;;;;11.97;11.07;;;18.10;99.90;;;;;;5002609;28;20632;-90
2021/07/28 03:51:51;;;;;;;13.30;12.30;;;18.10;99.90;;;;;;5022916;28;20623;-90
2021/07/28 03:54:18;;;;;;;12.37;11.40;;;18.10;99.90;;;;;;5013876;28;20647;-90
2021/07/28 03:56:45;;;;;;;12.37;11.13;;;18.20;99.90;;;;;;5016880;28;20738;-91
2021/07/28 03:59:13;;;;;;;12.60;10.80;;;18.10;99.90;;;;;;5017372;28;21163;-91
2021/07/28 04:01:39;;;;;;;12.23;10.60;;;18.10;99.90;;;;;;5018779;28;20817;-91
2021/07/28 04:04:06;;;;;;;12.30;11.00;;;18.00;99.90;;;;;;5017862;28;20622;-92
2021/07/28 04:06:33;;;;;;;13.07;11.77;;;18.00;99.90;;;;;;5017877;28;20622;-91
2021/07/28 04:09:00;;;;;;;12.50;11.40;;;18.00;99.90;;;;;;5016233;28;20627;-91
2021/07/28 04:11:27;;;;;;;12.47;11.13;;;18.00;99.90;;;;;;5019808;28;20646;-91
2021/07/28 04:13:53;;;;;;;12.03;10.97;;;18.00;99.90;;;;;;5018792;28;20723;-91
2021/07/28 04:16:22;;;;;;;11.83;10.67;;;18.10;99.90;;;;;;5021335;28;20626;-91
2021/07/28 04:18:48;;;;;;;12.17;11.07;;;18.10;99.90;;;;;;5022462;28;20618;-91
2021/07/28 04:21:15;;;;;;;14.77;13.57;;;18.10;99.90;;;;;;5024399;28;20678;-91
2021/07/28 04:23:42;;;;;;;14.90;13.67;;;18.10;99.90;;;;;;5038327;28;20627;-93
2021/07/28 04:26:09;;;;;;;14.63;13.43;;;18.10;99.90;;;;;;5042607;28;20656;-93
2021/07/28 04:28:36;;;;;;;13.80;12.50;;;18.10;99.90;;;;;;5053387;28;20658;-93
2021/07/28 04:31:03;;;;;;;14.23;12.70;;;18.10;99.90;;;;;;5048265;28;20674;-93
2021/07/28 04:33:31;;;;;;;14.67;12.90;;;18.10;99.90;;;;;;5047246;28;20718;-92
2021/07/28 04:35:58;;;;;;;17.47;15.53;;;18.10;99.90;;;;;;5051519;28;20694;-94
2021/07/28 04:38:25;;;;;;;16.40;15.10;;;18.20;99.90;;;;;;5048023;28;20630;-92
2021/07/28 04:40:52;;;;;;;13.53;12.23;;;18.20;99.90;;;;;;5047639;28;20702;-93
2021/07/28 04:43:19;;;;;;;13.90;12.30;;;18.20;99.90;;;;;;5047857;28;20730;-93
2021/07/28 04:45:46;;;;;;;14.90;13.70;;;18.20;99.90;;;;;;5047116;28;20607;-93
2021/07/28 04:48:13;;;;;;;17.33;15.63;;;18.20;99.90;;;;;;5045197;28;20686;-93
2021/07/28 04:50:41;;;;;;;16.40;15.00;;;18.30;99.90;;;;;;5043455;28;20669;-93
2021/07/28 04:53:08;;;;;;;18.00;16.50;;;18.30;99.90;;;;;;5043688;28;20726;-92
2021/07/28 04:55:35;;;;;;;17.10;15.47;;;18.30;99.90;;;;;;5031740;28;20703;-93
2021/07/28 04:58:01;;;;;;;15.77;14.57;;;18.40;99.90;;;;;;5038533;28;20631;-93
2021/07/28 05:00:28;;;;;;;17.47;15.73;;;18.50;99.90;;;;;;5020885;28;20677;-92
2021/07/28 05:02:55;;;;;;;15.50;14.20;;;18.40;99.90;;;;;;5025274;28;20659;-92
2021/07/28 05:05:22;;;;;;;14.23;12.93;;;18.40;99.90;;;;;;5029084;28;20639;-92
2021/07/28 05:07:50;;;;;;;13.93;12.20;;;18.40;99.90;;;;;;5036708;28;20650;-93
2021/07/28 05:10:17;;;;;;;15.40;13.90;;;18.50;99.90;;;;;;5042371;28;21133;-93
2021/07/28 05:12:44;;;;;;;15.43;13.93;;;18.50;99.90;;;;;;5032238;28;20634;-93
2021/07/28 05:15:12;;;;;;;14.00;12.60;;;18.60;99.90;;;;;;5042877;28;20626;-93
2021/07/28 05:17:39;;;;;;;18.83;17.30;;;18.50;99.90;;;;;;5045350;28;21142;-92
2021/07/28 05:20:07;;;;;;;16.47;15.07;;;18.60;99.90;;;;;;5034107;28;20705;-92
2021/07/28 05:22:33;;;;;;;18.67;17.10;;;18.60;99.90;;;;;;5027670;28;20615;-92
2021/07/28 05:25:02;;;;;;;19.47;17.53;;;18.60;99.90;;;;;;5035528;28;20668;-93
2021/07/28 05:27:29;;;;;;;18.67;17.03;;;18.50;99.90;;;;;;5035371;28;20671;-93
2021/07/28 05:29:56;;;;;;;18.23;16.43;;;18.60;99.90;;;;;;5033081;28;20682;-93
2021/07/28 05:32:23;;;;;;;14.03;12.67;;;18.60;99.90;;;;;;5038783;28;20655;-93
2021/07/28 05:34:51;;;;;;;15.77;13.27;;;18.60;99.90;;;;;;5048454;28;20642;-93
2021/07/28 05:37:18;;;;;;;16.13;14.43;;;18.70;99.90;;;;;;5031274;28;20612;-93
2021/07/28 05:39:45;;;;;;;15.60;14.00;;;18.60;99.90;;;;;;5024434;28;20702;-93
2021/07/28 05:42:14;;;;;;;14.33;13.07;;;18.70;99.90;;;;;;5033452;28;21227;-92
2021/07/28 05:44:43;;;;;;;15.10;12.57;;;18.80;99.90;;;;;;5023195;28;20615;-93
2021/07/28 05:47:10;;;;;;;14.27;13.07;;;18.80;99.90;;;;;;5019406;28;20603;-94
2021/07/28 05:49:37;;;;;;;13.53;12.20;;;18.90;99.90;;;;;;5023787;28;20686;-94
2021/07/28 05:52:04;;;;;;;13.80;11.83;;;18.90;99.90;;;;;;5025208;28;20661;-93
2021/07/28 05:54:32;;;;;;;14.43;13.07;;;18.90;99.90;;;;;;5031786;28;20645;-93
2021/07/28 05:56:59;;;;;;;17.27;12.90;;;19.00;99.90;;;;;;5028677;28;20619;-92
2021/07/28 05:59:28;;;;;;;15.23;13.10;;;19.00;99.90;;;;;;5021230;28;20629;-93
2021/07/28 06:02:03;;;;;;;15.57;14.37;;;19.00;99.90;;;;;;5015261;28;20652;-93
2021/07/28 06:04:30;;;;;;;16.30;14.80;;;19.00;99.90;;;;;;5027770;28;21286;-93
2021/07/28 06:06:58;;;;;;;15.37;14.17;;;19.10;99.90;;;;;;5026550;28;20674;-93
2021/07/28 06:09:26;;;;;;;15.07;13.57;;;19.10;99.90;;;;;;5027617;28;20623;-92
2021/07/28 06:11:53;;;;;;;12.27;10.87;;;19.10;99.90;;;;;;5030432;28;20635;-93
2021/07/28 06:14:20;;;;;;;10.13;9.23;;;19.00;99.90;;;;;;5031104;28;20633;-94
2021/07/28 06:16:48;;;;;;;15.73;9.07;;;19.10;99.90;;;;;;5028024;28;20643;-93
2021/07/28 06:19:16;;;;;;;8.50;7.53;;;19.20;99.90;;;;;;5031571;28;20737;-93
2021/07/28 06:21:42;;;;;;;9.93;9.13;;;19.20;99.90;;;;;;5032198;28;20769;-93
2021/07/28 06:24:10;;;;;;;10.07;9.17;;;19.40;99.90;;;;;;5026675;28;21226;-93
2021/07/28 06:26:37;;;;;;;9.87;8.57;;;19.30;99.90;;;;;;5009074;28;20615;-93
2021/07/28 06:29:04;;;;;;;9.93;8.87;;;19.30;99.90;;;;;;5029228;28;21268;-93
2021/07/28 06:31:31;;;;;;;6.50;5.07;;;19.50;99.90;;;;;;5025055;28;21014;-93
2021/07/28 06:34:02;;;;;;;7.70;6.80;;;19.40;99.90;;;;;;5030631;28;20623;-92
2021/07/28 06:36:29;;;;;;;6.97;6.27;;;19.60;99.90;;;;;;5025116;28;20627;-94
2021/07/28 06:38:56;;;;;;;6.47;5.83;;;19.60;99.90;;;;;;5026788;28;20642;-93
2021/07/28 06:41:23;;;;;;;7.77;6.10;;;19.70;99.90;;;;;;5025951;28;20680;-93
2021/07/28 06:43:52;;;;;;;6.13;5.53;;;19.60;99.90;;;;;;5026609;28;20615;-93
2021/07/28 06:46:19;;;;;;;5.70;5.20;;;19.60;99.90;;;;;;5024546;28;20831;-93
2021/07/28 06:48:45;;;;;;;5.50;5.00;;;19.60;99.90;;;;;;5028728;28;21443;-93
2021/07/28 06:51:14;;;;;;;6.90;6.27;;;19.60;99.90;;;;;;5029993;28;20656;-93
2021/07/28 06:53:41;;;;;;;6.80;6.30;;;19.60;99.90;;;;;;5026029;28;20620;-94
2021/07/28 06:56:11;;;;;;;6.13;5.63;;;19.40;99.90;;;;;;5029511;28;20706;-93
2021/07/28 06:58:38;;;;;;;6.03;5.43;;;19.40;99.90;;;;;;5021229;28;20638;-93
2021/07/28 07:01:06;;;;;;;5.93;5.33;;;19.40;99.90;;;;;;5021222;28;20730;-92
2021/07/28 07:03:34;;;;;;;6.20;5.60;;;19.30;99.90;;;;;;5024275;28;21173;-92
2021/07/28 07:06:02;;;;;;;6.00;5.60;;;19.30;99.90;;;;;;5026255;28;21021;-92
2021/07/28 07:08:31;;;;;;;9.50;5.83;;;19.20;99.90;;;;;;5026118;28;20671;-92
2021/07/28 07:10:58;;;;;;;7.20;6.30;;;19.20;99.90;;;;;;5023324;28;20705;-92
2021/07/28 07:13:27;;;;;;;5.30;4.70;;;19.20;99.90;;;;;;5030362;28;20699;-93
2021/07/28 07:15:54;;;;;;;6.13;5.40;;;19.10;99.90;;;;;;5026042;28;20630;-93
2021/07/28 07:18:21;;;;;;;6.07;5.57;;;19.00;99.90;;;;;;5023947;28;20718;-93
2021/07/28 07:20:48;;;;;;;7.23;6.50;;;19.10;99.90;;;;;;5026684;28;21245;-92
2021/07/28 07:23:15;;;;;;;7.23;6.60;;;19.00;99.90;;;;;;5025600;28;20619;-93
2021/07/28 07:25:43;;;;;;;7.73;5.30;;;19.00;99.90;;;;;;5019301;28;20757;-92
2021/07/28 07:28:11;;;;;;;6.07;5.50;;;18.90;99.90;;;;;;5001699;28;20683;-93
2021/07/28 07:30:38;;;;;;;6.57;5.80;;;18.90;99.90;;;;;;5021812;28;20673;-92
2021/07/28 07:35:50;;;;;;;6.67;6.17;;;19.00;99.90;;;;;;5022931;28;20595;-93
2021/07/28 07:38:17;;;;;;;6.80;6.20;;;19.10;99.90;;;;;;5024198;28;20972;-93
2021/07/28 07:40:47;;;;;;;5.90;5.40;;;19.10;99.90;;;;;;5022151;28;21221;-93
2021/07/28 07:43:14;;;;;;;6.00;5.50;;;19.20;99.90;;;;;;5024324;28;20691;-92
2021/07/28 07:45:40;;;;;;;5.97;5.40;;;19.30;99.90;;;;;;5027992;28;20738;-93
2021/07/28 07:48:07;;;;;;;6.33;5.83;;;19.20;99.90;;;;;;5012072;28;21129;-93
2021/07/28 07:50:36;;;;;;;6.93;4.83;;;19.10;99.90;;;;;;5016931;28;20790;-93
2021/07/28 07:53:03;;;;;;;4.97;4.50;;;19.30;99.90;;;;;;5033209;28;20615;-93
2021/07/28 07:55:30;;;;;;;5.70;5.20;;;19.20;99.90;;;;;;5027006;28;20629;-93
2021/07/28 07:57:59;;;;;;;6.60;6.00;;;19.20;99.90;;;;;;5025280;28;20641;-94
2021/07/28 08:00:27;;;;;;;6.67;4.97;;;19.20;99.90;;;;;;5021842;28;20746;-93
2021/07/28 08:02:55;;;;;;;5.20;4.70;;;19.10;99.90;;;;;;5017397;28;20655;-94
2021/07/28 08:05:22;;;;;;;7.03;6.03;;;19.10;99.90;;;;;;5025287;28;20618;-93
2021/07/28 08:07:49;;;;;;;6.20;5.70;;;19.10;99.90;;;;;;5017874;28;20629;-93
2021/07/28 08:10:16;;;;;;;6.00;5.40;;;19.10;99.90;;;;;;5006079;28;20660;-94
2021/07/28 08:12:44;;;;;;;6.50;6.00;;;19.10;99.90;;;;;;5015609;28;20634;-94
2021/07/28 08:15:12;;;;;;;5.00;4.57;;;19.00;99.90;;;;;;5019606;28;20696;-94
2021/07/28 08:17:40;;;;;;;6.27;5.23;;;19.00;99.90;;;;;;5027993;28;20646;-93
2021/07/28 08:20:08;;;;;;;6.30;5.70;;;19.00;99.90;;;;;;5017429;28;20671;-93
2021/07/28 08:22:35;;;;;;;5.77;5.23;;;19.00;99.90;;;;;;5024105;28;20670;-93
2021/07/28 08:25:02;;;;;;;6.53;5.40;;;18.80;99.90;;;;;;5020988;28;20727;-93
2021/07/28 08:27:29;;;;;;;6.10;5.17;;;18.90;99.90;;;;;;5014976;28;20646;-93
2021/07/28 08:29:56;;;;;;;8.53;5.30;;;18.80;99.90;;;;;;5027460;28;21175;-93
2021/07/28 08:32:24;;;;;;;5.80;5.30;;;18.80;99.90;;;;;;5024086;28;20637;-94
2021/07/28 08:34:51;;;;;;;5.30;4.80;;;18.90;99.90;;;;;;5022876;28;20624;-93
2021/07/28 08:37:20;;;;;;;6.43;5.50;;;18.80;99.90;;;;;;5021948;28;20887;-94
2021/07/28 08:39:47;;;;;;;7.03;5.50;;;18.80;99.90;;;;;;5022865;28;21043;-93
2021/07/28 08:42:18;;;;;;;5.40;4.90;;;18.90;99.90;;;;;;5021912;28;20766;-94
2021/07/28 08:44:45;;;;;;;7.10;5.20;;;18.80;99.90;;;;;;5020106;28;20625;-94
2021/07/28 08:47:12;;;;;;;6.70;5.20;;;18.80;99.90;;;;;;5032267;28;20663;-93
2021/07/28 08:49:41;;;;;;;5.40;5.00;;;18.80;99.90;;;;;;5020298;28;20666;-93
2021/07/28 08:52:11;;;;;;;5.90;5.40;;;18.80;99.90;;;;;;5020048;28;20627;-93
2021/07/28 08:54:38;;;;;;;7.70;5.53;;;18.90;99.90;;;;;;5020849;28;20898;-93
2021/07/28 08:57:10;;;;;;;5.00;4.60;;;19.10;99.90;;;;;;5022089;28;20635;-92
2021/07/28 08:59:37;;;;;;;7.17;5.00;;;19.20;99.90;;;;;;5020225;28;20687;-93
2021/07/28 09:02:04;;;;;;;5.00;4.63;;;19.40;99.90;;;;;;5029311;28;20674;-93
2021/07/28 09:07:23;;;;;;;5.20;4.70;;;19.60;99.90;;;;;;5026704;28;20619;-93
2021/07/28 09:09:51;;;;;;;4.50;4.10;;;19.60;99.90;;;;;;5029374;28;20658;-93
2021/07/28 09:12:18;;;;;;;5.37;4.77;;;19.70;99.90;;;;;;5027933;28;20615;-93
2021/07/28 09:14:53;;;;;;;5.10;4.70;;;19.60;99.90;;;;;;5027127;28;21056;-93
2021/07/28 09:17:24;;;;;;;5.97;5.50;;;19.60;99.90;;;;;;5025672;28;20987;-93
2021/07/28 09:19:51;;;;;;;5.60;4.73;;;19.80;99.90;;;;;;5027738;28;20639;-93
2021/07/28 09:22:20;;;;;;;5.63;4.37;;;19.80;99.90;;;;;;5025996;28;20666;-93
2021/07/28 09:25:06;;;;;;;5.07;4.67;;;19.80;99.90;;;;;;5032072;28;20741;-92
2021/07/28 09:27:41;;;;;;;5.70;5.20;;;20.00;99.90;;;;;;5023560;28;20732;-93
2021/07/28 09:30:09;;;;;;;5.13;4.63;;;19.90;99.90;;;;;;5027245;28;20654;-93
2021/07/28 09:33:00;;;;;;;4.57;4.17;;;20.10;99.90;;;;;;5023465;28;20634;-92
2021/07/28 09:35:57;;;;;;;5.70;5.20;;;20.20;99.90;;;;;;5027909;28;20622;-91
2021/07/28 09:38:34;;;;;;;5.70;4.27;;;20.30;99.90;;;;;;5027891;28;20611;-92
2021/07/28 09:41:13;;;;;;;7.00;4.80;;;20.30;99.90;;;;;;5020316;28;20646;-92
2021/07/28 09:43:48;;;;;;;5.30;4.80;;;20.50;99.90;;;;;;5022617;28;20662;-92
2021/07/28 09:46:23;;;;;;;5.80;5.40;;;20.60;99.90;;;;;;5022075;28;21038;-91
2021/07/28 09:48:49;;;;;;;4.93;4.27;;;20.60;99.90;;;;;;5030052;28;20636;-92
2021/07/28 09:51:28;;;;;;;4.80;4.40;;;20.70;99.90;;;;;;5021648;28;20659;-91
2021/07/28 09:53:58;;;;;;;6.83;4.73;;;20.70;99.90;;;;;;5028201;28;21012;-91
2021/07/28 09:56:31;;;;;;;4.20;3.60;;;20.80;99.90;;;;;;5029629;28;20627;-92
2021/07/28 09:58:59;;;;;;;4.93;3.83;;;20.90;99.90;;;;;;5019919;28;20669;-91
2021/07/28 10:01:28;;;;;;;6.00;3.97;;;20.90;99.90;;;;;;5028866;28;21256;-92
2021/07/28 10:04:00;;;;;;;4.70;3.93;;;20.90;99.90;;;;;;5029345;28;20662;-91
2021/07/28 10:06:33;;;;;;;4.27;3.97;;;21.00;99.90;;;;;;5025904;28;21091;-92
2021/07/28 10:09:02;;;;;;;4.40;3.43;;;21.00;99.90;;;;;;5017917;28;20619;-92
2021/07/28 10:11:30;;;;;;;5.20;3.70;;;21.20;99.90;;;;;;5015182;28;20663;-92
2021/07/28 10:13:57;;;;;;;3.77;3.47;;;21.40;99.90;;;;;;5016775;28;20663;-91
2021/07/28 10:16:24;;;;;;;4.10;3.70;;;21.50;99.90;;;;;;5020996;28;20635;-91
2021/07/28 10:18:53;;;;;;;6.00;4.20;;;21.40;99.90;;;;;;5018298;28;20630;-91
2021/07/28 10:21:20;;;;;;;5.40;3.53;;;21.60;99.90;;;;;;5013361;28;20659;-92
2021/07/28 10:23:49;;;;;;;5.10;3.73;;;21.60;99.90;;;;;;5004239;28;20662;-91
2021/07/28 10:26:19;;;;;;;4.20;3.50;;;21.60;99.90;;;;;;5022864;28;20621;-91
2021/07/28 10:28:49;;;;;;;4.27;3.37;;;21.60;99.90;;;;;;5025400;28;20650;-94
2021/07/28 10:31:17;;;;;;;4.03;3.63;;;21.80;99.90;;;;;;5023762;28;21179;-94
2021/07/28 10:33:52;;;;;;;3.97;3.67;;;21.60;99.90;;;;;;5018723;28;21193;-92
2021/07/28 10:36:20;;;;;;;3.57;3.27;;;21.70;99.90;;;;;;5018100;28;20603;-92
2021/07/28 10:38:56;;;;;;;3.97;3.67;;;21.70;99.90;;;;;;5017998;28;22296;-92
2021/07/28 10:41:49;;;;;;;4.03;3.73;;;21.90;99.90;;;;;;5026102;28;21032;-92
2021/07/28 10:44:25;;;;;;;3.83;3.53;;;21.80;99.90;;;;;;5020759;28;20591;-92
2021/07/28 10:47:16;;;;;;;3.53;3.23;;;21.80;99.90;;;;;;5020005;28;20643;-93
2021/07/28 10:49:48;;;;;;;4.57;4.17;;;21.60;99.90;;;;;;5022093;28;20635;-93
2021/07/28 10:52:41;;;;;;;3.90;3.60;;;21.70;99.90;;;;;;5021624;28;20986;-90
2021/07/28 10:55:23;;;;;;;5.90;4.37;;;21.80;99.90;;;;;;5022066;28;20704;-92
2021/07/28 10:58:19;;;;;;;5.63;3.80;;;21.90;99.90;;;;;;5013189;28;20638;-92
2021/07/28 11:00:50;;;;;;;6.23;4.07;;;22.00;99.90;;;;;;5025063;28;20738;-93
2021/07/28 11:03:18;;;;;;;10.67;3.83;;;22.10;99.90;;;;;;5020637;28;20627;-92
2021/07/28 11:05:48;;;;;;;4.43;3.77;;;22.40;99.90;;;;;;5001756;28;21013;-92
2021/07/28 11:08:19;;;;;;;3.87;3.57;;;22.50;99.90;;;;;;5021197;28;20635;-93
2021/07/28 11:10:54;;;;;;;3.60;3.30;;;22.00;99.90;;;;;;5015916;28;20694;-92
2021/07/28 11:13:23;;;;;;;6.53;4.00;;;21.80;99.90;;;;;;5022898;28;21170;-92
2021/07/28 11:15:58;;;;;;;4.63;4.13;;;21.80;99.90;;;;;;5020616;28;20616;-93
2021/07/28 11:18:35;;;;;;;5.03;4.10;;;21.90;99.90;;;;;;5011815;28;20618;-93
2021/07/28 11:21:13;;;;;;;4.40;4.00;;;21.90;99.90;;;;;;5015018;28;21016;-92
2021/07/28 11:23:42;;;;;;;4.70;3.83;;;22.30;99.90;;;;;;5011275;28;20689;-93
2021/07/28 11:26:19;;;;;;;10.27;4.23;;;22.50;99.90;;;;;;5014495;28;20632;-93
2021/07/28 11:28:47;;;;;;;4.17;3.87;;;22.60;99.90;;;;;;5029099;28;20648;-92
2021/07/28 11:31:23;;;;;;;4.30;4.00;;;22.70;99.90;;;;;;4996417;28;20651;-91
2021/07/28 11:34:02;;;;;;;3.83;3.40;;;23.00;99.90;;;;;;5004079;28;20628;-91
2021/07/28 11:36:36;;;;;;;4.00;3.60;;;23.10;99.90;;;;;;5037115;28;20676;-91
2021/07/28 11:39:12;;;;;;;4.40;4.00;;;22.80;99.90;;;;;;5024793;28;20639;-91
2021/07/28 11:41:40;;;;;;;3.70;3.40;;;22.90;99.90;;;;;;5017673;28;20630;-91
2021/07/28 11:44:07;;;;;;;4.23;3.83;;;23.30;99.90;;;;;;5010384;28;20663;-91
2021/07/28 11:46:36;;;;;;;4.00;3.70;;;23.60;99.90;;;;;;5016424;28;20631;-92
2021/07/28 11:49:07;;;;;;;4.03;3.67;;;24.10;99.90;;;;;;4995842;28;20636;-92
2021/07/28 11:51:36;;;;;;;4.53;4.13;;;24.60;99.90;;;;;;5001823;28;20659;-90
2021/07/28 11:54:08;;;;;;;4.03;3.57;;;24.80;99.90;;;;;;5011566;28;20627;-90
2021/07/28 11:56:35;;;;;;;6.30;4.00;;;25.40;99.90;;;;;;5018236;28;20691;-90
2021/07/28 11:59:02;;;;;;;3.90;3.60;;;25.50;99.90;;;;;;5017036;28;20631;-90
2021/07/28 12:01:30;;;;;;;3.67;3.37;;;25.70;99.90;;;;;;5019066;28;20654;-90
2021/07/28 12:04:03;;;;;;;4.00;3.60;;;26.20;99.90;;;;;;5018209;28;20663;-90
2021/07/28 12:06:34;;;;;;;4.73;3.07;;;26.90;99.90;;;;;;5022195;28;20638;-90
2021/07/28 12:09:09;;;;;;;3.80;3.30;;;27.60;98.10;;;;;;5017235;28;20955;-90
2021/07/28 12:12:00;;;;;;;4.30;4.00;;;27.00;99.10;;;;;;5010271;28;20645;-90
2021/07/28 12:14:33;;;;;;;4.70;4.30;;;27.80;96.70;;;;;;5016972;28;20635;-90
2021/07/28 12:17:02;;;;;;;3.90;3.57;;;27.70;97.00;;;;;;5015104;28;20632;-91
2021/07/28 12:19:33;;;;;;;4.27;3.90;;;27.80;96.70;;;;;;5018945;28;20762;-92
2021/07/28 12:22:03;;;;;;;3.83;3.53;;;27.40;96.90;;;;;;5013228;28;20639;-90
2021/07/28 12:24:38;;;;;;;4.30;3.90;;;27.60;95.20;;;;;;5016648;28;20666;-91
2021/07/28 12:27:41;;;;;;;4.40;4.10;;;27.60;96.20;;;;;;5015636;28;20634;-90
2021/07/28 12:30:17;;;;;;;3.80;3.50;;;27.60;95.40;;;;;;5012205;28;20651;-89
2021/07/28 12:32:45;;;;;;;4.30;3.90;;;28.10;93.80;;;;;;5013416;28;20663;-90
2021/07/28 12:38:10;;;;;;;4.47;4.17;;;28.90;92.30;;;;;;5120863;27;21094;-90
2021/07/28 12:40:42;;;;;;;4.00;3.73;;;30.10;88.80;;;;;;5101887;28;21180;-91
2021/07/28 12:43:10;;;;;;;4.70;4.33;;;29.50;88.90;;;;;;5104645;28;20707;-92
2021/07/28 12:45:37;;;;;;;4.13;3.73;;;28.60;90.80;;;;;;5105714;28;20623;-92
2021/07/28 12:48:05;;;;;;;4.67;4.27;;;27.40;94.10;;;;;;5105706;27;21023;-92
2021/07/28 12:50:35;;;;;;;3.93;3.63;;;27.30;94.80;;;;;;5107535;27;20739;-92
2021/07/28 12:53:04;;;;;;;4.00;3.70;;;27.20;94.90;;;;;;5104910;27;20643;-92
2021/07/28 12:55:32;;;;;;;4.43;3.90;;;26.80;96.70;;;;;;5096597;28;20631;-90
2021/07/28 12:57:59;;;;;;;4.03;3.63;;;27.00;96.10;;;;;;5100836;28;20675;-92